createdAt,value
2019-02-11T00:04:25.918Z,3.19
2019-02-11T00:10:30.465Z,3.09
2019-02-11T00:16:35.921Z,3.03
2019-02-11T00:22:40.457Z,2.89
2019-02-11T00:28:45.014Z,2.94
2019-02-11T00:34:49.540Z,2.87
2019-02-11T00:40:54.160Z,2.76
2019-02-11T00:47:00.296Z,2.88
2019-02-11T00:53:08.151Z,2.80
2019-02-11T00:59:12.713Z,2.81
2019-02-11T01:05:17.240Z,2.89
2019-02-11T01:11:21.852Z,2.92
2019-02-11T01:17:26.474Z,2.94
2019-02-11T01:23:31.012Z,2.94
2019-02-11T01:29:35.566Z,2.97
2019-02-11T01:35:40.102Z,3.01
2019-02-11T01:41:44.650Z,3.09
2019-02-11T01:47:49.187Z,3.17
2019-02-11T01:53:53.764Z,3.21
2019-02-11T02:06:08.143Z,3.35
2019-02-11T02:12:12.697Z,3.42
2019-02-11T02:18:17.239Z,3.39
2019-02-11T02:24:21.785Z,3.50
2019-02-11T02:30:26.329Z,3.66
2019-02-11T02:36:30.868Z,3.66
2019-02-11T02:42:35.411Z,3.73
2019-02-11T02:48:39.948Z,3.78
2019-02-11T02:54:44.491Z,3.83
2019-02-11T03:00:49.037Z,3.76
2019-02-11T03:06:53.672Z,3.80
2019-02-11T03:12:58.213Z,3.87
2019-02-11T03:19:02.853Z,3.97
2019-02-11T03:25:09.206Z,4.04
2019-02-11T03:31:13.827Z,4.05
2019-02-11T03:37:18.389Z,4.10
2019-02-11T03:43:25.176Z,4.15
2019-02-11T03:49:29.736Z,4.06
2019-02-11T03:55:34.487Z,4.10
2019-02-11T04:01:39.045Z,4.14
2019-02-11T04:07:43.592Z,4.10
2019-02-11T04:13:48.201Z,4.22
2019-02-11T04:19:52.740Z,4.36
2019-02-11T04:25:57.275Z,4.33
2019-02-11T04:32:01.819Z,4.47
2019-02-11T04:38:06.415Z,4.56
2019-02-11T04:44:13.904Z,4.68
2019-02-11T04:50:18.807Z,4.55
2019-02-11T04:56:27.066Z,4.45
2019-02-11T05:02:31.630Z,4.35
2019-02-11T05:08:36.180Z,4.34
2019-02-11T05:14:43.970Z,4.33
2019-02-11T05:20:48.194Z,4.40
2019-02-11T05:26:52.740Z,4.38
2019-02-11T05:32:57.371Z,4.22
2019-02-11T05:39:02.131Z,4.24
2019-02-11T05:45:08.768Z,4.35
2019-02-11T05:51:13.310Z,4.29
2019-02-11T05:57:17.920Z,4.26
2019-02-11T06:03:22.481Z,4.23
2019-02-11T06:09:29.001Z,4.07
2019-02-11T06:15:33.569Z,3.98
2019-02-11T06:21:38.113Z,4.07
2019-02-11T06:27:42.658Z,4.13
2019-02-11T06:33:47.214Z,4.19
2019-02-11T06:39:53.403Z,4.43
2019-02-11T06:45:57.938Z,4.45
2019-02-11T06:52:02.657Z,4.49
2019-02-11T06:58:07.199Z,4.45
2019-02-11T07:04:11.753Z,4.45
2019-02-11T07:10:16.298Z,4.42
2019-02-11T07:16:20.845Z,4.43
2019-02-11T07:22:25.375Z,4.54
2019-02-11T07:28:29.913Z,4.61
2019-02-11T07:34:37.274Z,4.55
2019-02-11T07:40:41.821Z,4.61
2019-02-11T07:46:46.543Z,4.71
2019-02-11T07:52:51.096Z,4.67
2019-02-11T07:58:55.636Z,4.71
2019-02-11T08:05:01.675Z,4.80
2019-02-11T08:11:06.223Z,4.77
2019-02-11T08:17:10.784Z,4.80
2019-02-11T08:23:16.282Z,4.77
2019-02-11T08:29:20.830Z,4.80
2019-02-11T08:35:25.445Z,4.54
2019-02-11T08:41:29.994Z,4.26
2019-02-11T08:47:35.800Z,4.16
2019-02-11T08:53:43.576Z,4.19
2019-02-11T08:59:48.183Z,4.10
2019-02-11T09:05:53.861Z,3.95
2019-02-11T09:11:58.410Z,3.88
2019-02-11T09:18:03.445Z,3.88
2019-02-11T09:24:08.123Z,3.93
2019-02-11T09:30:16.289Z,4.10
2019-02-11T09:36:20.834Z,4.18
2019-02-11T09:42:26.590Z,4.20
2019-02-11T09:48:31.148Z,4.20
2019-02-11T09:54:35.743Z,4.39
2019-02-11T10:00:40.293Z,4.62
2019-02-11T10:06:44.838Z,5.06
2019-02-11T10:12:49.372Z,5.41
2019-02-11T10:18:55.820Z,5.46
2019-02-11T10:25:00.371Z,5.38
2019-02-11T10:31:05.055Z,5.05
2019-02-11T10:37:09.671Z,5.14
2019-02-11T10:43:14.208Z,5.25
2019-02-11T10:49:18.774Z,5.40
2019-02-11T10:55:23.789Z,5.53
2019-02-11T11:01:28.398Z,5.47
2019-02-11T11:07:34.788Z,5.66
2019-02-11T11:13:39.672Z,6.00
2019-02-11T11:19:44.220Z,5.97
2019-02-11T11:25:48.899Z,6.15
2019-02-11T11:31:53.474Z,5.95
2019-02-11T11:37:58.971Z,5.98
2019-02-11T11:44:03.647Z,6.21
2019-02-11T11:50:10.367Z,6.31
2019-02-11T11:56:15.069Z,6.53
2019-02-11T12:02:19.787Z,6.78
2019-02-11T12:08:24.393Z,6.62
2019-02-11T12:14:29.000Z,6.57
2019-02-11T12:20:34.387Z,6.20
2019-02-11T12:26:39.347Z,5.19
2019-02-11T12:32:43.953Z,5.00
2019-02-11T12:38:48.571Z,5.57
2019-02-11T12:44:53.124Z,5.64
2019-02-11T12:50:57.671Z,6.19
2019-02-11T12:57:05.517Z,6.14
2019-02-11T13:03:10.059Z,5.92
2019-02-11T13:09:14.716Z,5.75
2019-02-11T13:15:56.840Z,5.71
2019-02-11T13:21:28.651Z,5.44
2019-02-11T13:27:33.190Z,5.55
2019-02-11T13:33:37.724Z,6.44
2019-02-11T13:39:43.588Z,6.67
2019-02-11T13:45:48.223Z,6.73
2019-02-11T13:51:52.811Z,6.61
2019-02-11T13:57:57.828Z,6.56
2019-02-11T14:04:02.499Z,6.62
2019-02-11T14:10:07.952Z,7.01
2019-02-11T14:16:12.505Z,7.24
2019-02-11T14:22:17.039Z,7.38
2019-02-11T14:28:21.677Z,7.05
2019-02-11T14:34:26.217Z,6.60
2019-02-11T14:40:32.404Z,6.46
2019-02-11T14:46:36.936Z,6.32
2019-02-11T14:52:41.548Z,6.22
2019-02-11T14:58:46.094Z,6.65
2019-02-11T15:04:50.650Z,6.86
2019-02-11T15:10:57.621Z,7.13
2019-02-11T15:17:04.477Z,6.77
2019-02-11T15:23:09.001Z,6.38
2019-02-11T15:29:13.537Z,6.20
2019-02-11T15:35:18.151Z,6.22
2019-02-11T15:41:22.690Z,6.01
2019-02-11T15:47:27.257Z,5.88
2019-02-11T15:53:35.294Z,5.81
2019-02-11T15:59:39.906Z,5.81
2019-02-11T16:05:49.653Z,5.76
2019-02-11T16:11:54.304Z,5.67
2019-02-11T16:17:58.860Z,5.40
2019-02-11T16:24:03.422Z,5.26
2019-02-11T16:30:15.368Z,4.94
2019-02-11T16:36:19.898Z,4.89
2019-02-11T16:42:24.461Z,4.83
2019-02-11T16:48:31.770Z,4.87
2019-02-11T16:54:36.327Z,4.69
2019-02-11T17:00:41.532Z,4.68
2019-02-11T17:06:46.075Z,4.62
2019-02-11T17:12:50.627Z,4.50
2019-02-11T17:18:55.251Z,4.36
2019-02-11T17:24:59.800Z,4.30
2019-02-11T17:31:04.413Z,4.22
2019-02-11T17:37:09.041Z,4.13
2019-02-11T17:43:13.583Z,4.04
2019-02-11T17:49:18.132Z,4.01
2019-02-11T17:55:22.809Z,3.91
2019-02-11T18:01:27.502Z,3.95
2019-02-11T18:07:32.042Z,3.90
2019-02-11T18:13:36.589Z,3.86
2019-02-11T18:19:41.142Z,3.93
2019-02-11T18:25:45.836Z,3.94
2019-02-11T18:31:50.384Z,3.90
2019-02-11T18:37:54.926Z,3.83
2019-02-11T18:43:59.481Z,3.97
2019-02-11T18:50:05.977Z,4.01
2019-02-11T18:56:10.535Z,3.98
2019-02-11T19:02:15.273Z,4.12
2019-02-11T19:08:19.836Z,4.14
2019-02-11T19:14:24.472Z,4.10
2019-02-11T19:20:33.703Z,4.00
2019-02-11T19:26:38.266Z,3.98
2019-02-11T19:32:43.479Z,3.86
2019-02-11T19:38:48.024Z,4.05
2019-02-11T19:44:52.584Z,4.10
2019-02-11T19:50:57.123Z,4.23
2019-02-11T19:57:01.706Z,4.38
2019-02-11T20:03:06.345Z,4.25
2019-02-11T20:09:10.954Z,4.14
2019-02-11T20:15:22.250Z,4.23
2019-02-11T20:21:26.777Z,4.32
2019-02-11T20:27:31.381Z,4.22
2019-02-11T20:33:35.951Z,4.49
2019-02-11T20:39:42.070Z,4.51
2019-02-11T20:45:46.968Z,4.55
2019-02-11T20:51:53.706Z,4.39
2019-02-11T20:58:01.959Z,4.41
2019-02-11T21:04:06.865Z,4.32
2019-02-11T21:10:14.859Z,4.33
2019-02-11T21:16:19.445Z,4.33
2019-02-11T21:22:24.135Z,4.20
2019-02-11T21:28:28.785Z,4.08
2019-02-11T21:34:33.331Z,4.03
2019-02-11T21:40:37.891Z,3.75
2019-02-11T21:46:42.443Z,3.81
2019-02-11T21:52:47.073Z,3.83
2019-02-11T21:58:51.645Z,3.74
2019-02-11T22:04:56.208Z,3.72
2019-02-11T22:11:00.757Z,3.72
2019-02-11T22:17:05.396Z,3.83
2019-02-11T22:23:10.007Z,3.83
2019-02-11T22:29:15.114Z,3.71
2019-02-11T22:35:19.672Z,3.92
2019-02-11T22:41:24.210Z,3.89
2019-02-11T22:47:28.753Z,3.96
2019-02-11T22:53:33.302Z,3.97
2019-02-11T22:59:37.854Z,4.14
2019-02-11T23:05:42.677Z,4.03
2019-02-11T23:11:47.294Z,4.11
2019-02-11T23:17:51.828Z,4.04
2019-02-11T23:23:56.363Z,4.10
2019-02-11T23:30:02.378Z,4.04
2019-02-11T23:36:06.930Z,4.10
2019-02-11T23:42:11.475Z,3.97
2019-02-11T23:48:16.025Z,3.95
2019-02-11T23:54:20.571Z,3.96
